Airport View

Enter AWOS ICAO identifier for current METAR.

ex. KFNL

PAWS 251556Z AUTO 07007KT 10SM BKN065 OVC080 05/M04 A3009 RMK AO2 SLP195 T00501039

25 Oct 2020 16:06

Frequency: 135.25

Phone: 907-373-3801

Other Area AWOS: PABV - PAAQ - PAFR - PAED

TAF PAAQ 251145Z 2512/2612 36011KT P6SM -SHRA BKN070 FM251800 02007KT P6SM -RASN SCT020 BKN050 FM260300 11008KT 6SM -RASN SCT015 OVC035 FM260600 02010KT 4SM -SN OVC015